YWMM weather

Wollomombi Airport
New South Wales, Australia

Public forecast

Using degrees Celsius for public forecast. Weather courtesy of forecast.io.

METAR (pilot weather report)

Closest report is Port Macquarie Airport, 67.4 nm (124.9 km) SE. Retrieved 2019/02/23 03:30 UTC (48 minutes ago):

YPMQ 230330Z AUTO 19019G29KT 9999 // SCT069 26/14 Q1019

TAF (pilot weather forecast)

Forecast is more than 6 hours old.

Closest forecast is Tamworth Airport, 71.8 nm (133.0 km) WSW. Retrieved 2019/02/22 18:36 UTC (10 hours ago):

TAF TAF YSTW 221634Z 2218/2312 15015KT 9999 BKN040 BECMG 2221/2222 14018G28KT 9999 SCT050 FM231100 14013KT 9999 BKN040